Time;durP1;ratioP1;P1;durP2;ratioP2;P2;SDS_P1;SDS_P2;PMS_P1;PMS_P2;Temp;Humidity;BMP_temperature;BMP_pressure;BME280_temperature;BME280_humidity;BME280_pressure;Samples;Min_cycle;Max_cycle;Signal;HPM_P1;HPM_P2
2022/07/20 00:02:13;;;;;;;1.90;1.80;;;;;;;23.27;100.00;101405.28;4960045;28;20248;-67
2022/07/20 00:04:39;;;;;;;2.30;2.10;;;;;;;23.41;100.00;101428.31;4959646;28;20187;-67
2022/07/20 00:07:04;;;;;;;6.60;1.90;;;;;;;23.16;100.00;101398.97;4961190;28;20195;-66
2022/07/20 00:12:14;;;;;;;2.80;2.20;;;;;;;23.16;100.00;101409.91;4960204;28;20252;-67
2022/07/20 00:14:39;;;;;;;2.70;1.97;;;;;;;23.05;100.00;101402.75;4958535;28;20924;-67
2022/07/20 00:17:05;;;;;;;3.73;2.10;;;;;;;23.11;100.00;101404.41;4960730;28;20695;-67
2022/07/20 00:19:30;;;;;;;3.93;2.27;;;;;;;23.10;100.00;101408.25;4978533;28;20237;-67
2022/07/20 00:21:56;;;;;;;2.80;2.10;;;;;;;23.13;100.00;101411.28;4963731;28;20194;-67
2022/07/20 00:24:21;;;;;;;2.20;2.00;;;;;;;22.93;100.00;101400.22;4962520;28;20285;-67
2022/07/20 00:26:47;;;;;;;2.43;2.03;;;;;;;22.98;100.00;101392.91;4959474;28;20194;-67
2022/07/20 00:29:12;;;;;;;4.40;2.33;;;;;;;22.91;100.00;101380.50;4975610;28;20675;-67
2022/07/20 00:31:37;;;;;;;3.00;2.40;;;;;;;23.02;100.00;101404.13;4960374;28;20186;-67
2022/07/20 00:34:03;;;;;;;2.37;2.10;;;;;;;23.03;100.00;101397.56;4965094;28;20222;-66
2022/07/20 00:36:29;;;;;;;2.60;2.33;;;;;;;23.04;100.00;101401.94;4965221;28;20673;-67
2022/07/20 00:38:54;;;;;;;3.50;2.50;;;;;;;23.11;100.00;101413.44;4963611;28;20249;-67
2022/07/20 00:41:20;;;;;;;2.60;1.77;;;;;;;23.12;100.00;101411.56;4963001;28;20214;-67
2022/07/20 00:43:59;;;;;;;2.60;2.40;;;;;;;23.10;100.00;101408.25;4962811;28;20211;-67
2022/07/20 00:46:25;;;;;;;3.30;2.03;;;;;;;22.94;100.00;101394.50;4965593;28;20276;-67
2022/07/20 00:48:50;;;;;;;2.33;2.13;;;;;;;22.75;100.00;101372.25;4977510;28;21031;-67
2022/07/20 00:51:16;;;;;;;2.40;2.00;;;;;;;22.91;100.00;101405.97;4964213;28;20430;-66
2022/07/20 00:53:42;;;;;;;3.37;2.17;;;;;;;22.92;100.00;101404.88;4963298;28;20290;-67
2022/07/20 00:56:07;;;;;;;3.13;2.37;;;;;;;22.89;100.00;101404.59;4963646;28;20214;-67
2022/07/20 00:58:33;;;;;;;2.83;2.27;;;;;;;22.90;100.00;101400.75;4963941;28;20269;-66
2022/07/20 01:00:59;;;;;;;3.03;2.00;;;;;;;22.88;100.00;101395.53;4962604;28;20746;-66
2022/07/20 01:03:24;;;;;;;1.97;1.77;;;;;;;22.85;100.00;101398.81;4964517;28;20214;-67
2022/07/20 01:05:50;;;;;;;4.40;2.00;;;;;;;22.89;100.00;101391.75;4978883;28;20193;-66
2022/07/20 01:08:15;;;;;;;2.00;1.80;;;;;;;22.70;100.00;101366.78;4964823;28;20202;-66
2022/07/20 01:10:41;;;;;;;4.70;2.90;;;;;;;22.74;100.00;101386.22;4961316;28;20183;-66
2022/07/20 01:13:06;;;;;;;3.03;2.30;;;;;;;22.66;100.00;101389.47;4962076;28;20206;-67
2022/07/20 01:15:32;;;;;;;6.20;2.63;;;;;;;22.79;100.00;101387.03;4963688;28;20286;-66
2022/07/20 01:17:58;;;;;;;3.23;2.10;;;;;;;22.63;100.00;101381.78;4961402;28;20183;-67
2022/07/20 01:20:25;;;;;;;2.33;1.93;;;;;;;22.65;100.00;101390.53;4964751;28;20313;-67
2022/07/20 01:22:50;;;;;;;2.47;1.70;;;;;;;22.56;100.00;101371.94;4963935;28;20206;-66
2022/07/20 01:25:16;;;;;;;3.70;2.70;;;;;;;22.51;100.00;101365.59;4977636;28;20505;-67
2022/07/20 01:27:42;;;;;;;3.23;2.03;;;;;;;22.50;100.00;101377.59;4963356;28;20241;-67
2022/07/20 01:30:08;;;;;;;5.90;2.40;;;;;;;22.31;100.00;101355.38;4978716;28;20238;-67
2022/07/20 01:32:33;;;;;;;2.07;1.97;;;;;;;22.34;100.00;101360.31;4963470;28;20549;-67
2022/07/20 01:34:59;;;;;;;3.13;2.20;;;;;;;22.42;100.00;101373.50;4959871;28;20456;-66
2022/07/20 01:37:25;;;;;;;2.70;1.70;;;;;;;22.20;100.00;101356.41;4977404;28;20195;-67
2022/07/20 01:39:51;;;;;;;3.20;2.20;;;;;;;22.20;100.00;101359.97;4962167;28;20191;-67
2022/07/20 01:42:16;;;;;;;3.33;2.43;;;;;;;22.49;100.00;101373.25;4960112;28;20194;-67
2022/07/20 01:44:42;;;;;;;2.80;2.30;;;;;;;;;;4977137;28;20500;-67
2022/07/20 01:47:07;;;;;;;5.67;2.03;;;;;;;22.34;100.00;101377.53;4960340;28;20249;-67
2022/07/20 01:49:33;;;;;;;1.80;1.70;;;;;;;22.25;100.00;101367.38;4962228;28;20569;-67
2022/07/20 01:51:58;;;;;;;7.20;2.57;;;;;;;22.42;100.00;101365.28;4964524;28;20184;-66
2022/07/20 01:54:24;;;;;;;2.57;2.03;;;;;;;22.33;100.00;101375.06;4963949;28;20680;-67
2022/07/20 01:56:49;;;;;;;2.83;2.50;;;;;;;22.10;100.00;101340.72;4960474;28;20198;-67
2022/07/20 01:59:14;;;;;;;2.70;2.00;;;;;;;22.26;100.00;101374.47;4977197;28;20198;-67
2022/07/20 02:01:40;;;;;;;2.10;1.93;;;;;;;22.15;100.00;101362.63;4960866;28;20305;-66
2022/07/20 02:04:06;;;;;;;2.70;2.40;;;;;;;22.02;100.00;101331.13;4960685;28;20733;-66
2022/07/20 02:06:31;;;;;;;5.17;2.50;;;;;;;22.06;100.00;101364.22;4966702;28;20251;-67
2022/07/20 02:08:57;;;;;;;3.70;2.83;;;;;;;21.99;100.00;101352.69;4958730;28;20293;-66
2022/07/20 02:11:22;;;;;;;3.23;1.80;;;;;;;21.98;100.00;101359.22;4959932;28;20179;-67
2022/07/20 02:13:47;;;;;;;2.70;1.80;;;;;;;22.00;100.00;101381.66;4960892;28;20215;-66
2022/07/20 02:16:16;;;;;;;2.70;2.10;;;;;;;22.04;100.00;101380.03;4974892;28;20582;-68
2022/07/20 02:18:48;;;;;;;2.87;2.43;;;;;;;21.84;100.00;101337.00;4961605;28;20191;-66
2022/07/20 02:21:15;;;;;;;2.13;1.97;;;;;;;21.99;100.00;101369.91;4978746;28;20493;-66
2022/07/20 02:23:41;;;;;;;2.43;2.00;;;;;;;21.88;100.00;101373.66;4974538;28;20473;-66
2022/07/20 02:26:07;;;;;;;6.90;2.00;;;;;;;21.79;100.00;101343.28;4975421;28;20433;-66
2022/07/20 02:28:32;;;;;;;2.20;1.67;;;;;;;21.90;100.00;101376.94;4960519;28;20725;-67
2022/07/20 02:30:58;;;;;;;6.87;2.27;;;;;;;21.82;100.00;101366.50;4974259;28;20186;-66
2022/07/20 02:33:24;;;;;;;3.60;2.50;;;;;;;22.00;100.00;101371.53;4962727;28;20285;-66
2022/07/20 02:35:49;;;;;;;2.70;2.00;;;;;;;21.99;100.00;101369.91;4961230;28;20190;-67
2022/07/20 02:38:15;;;;;;;2.53;1.57;;;;;;;21.94;100.00;101366.31;4959380;28;20672;-66
2022/07/20 02:40:40;;;;;;;2.70;2.03;;;;;;;21.85;100.00;101369.53;4962671;28;20560;-66
2022/07/20 02:43:05;;;;;;;2.50;2.20;;;;;;;21.88;100.00;101358.06;4960170;28;20657;-67
2022/07/20 02:45:31;;;;;;;4.67;2.40;;;;;;;21.82;100.00;101361.84;4960672;28;20258;-66
2022/07/20 02:48:02;;;;;;;4.30;2.10;;;;;;;21.69;100.00;101350.53;4959914;28;20186;-66
2022/07/20 02:50:41;;;;;;;2.23;2.03;;;;;;;21.92;100.00;101361.09;4961674;28;20521;-67
2022/07/20 02:53:08;;;;;;;2.67;2.40;;;;;;;21.86;100.00;101362.97;4961860;28;20461;-66
2022/07/20 02:55:33;;;;;;;2.30;2.10;;;;;;;21.96;100.00;101361.38;4961399;28;20446;-66
2022/07/20 02:57:59;;;;;;;4.33;2.07;;;;;;;21.79;100.00;101343.28;4959578;28;20445;-66
2022/07/20 03:00:25;;;;;;;2.50;2.20;;;;;;;21.82;100.00;101355.56;4976641;28;20218;-67
2022/07/20 03:02:51;;;;;;;2.23;2.03;;;;;;;21.81;100.00;101351.19;4962427;28;20254;-67
2022/07/20 03:05:17;;;;;;;2.23;2.03;;;;;;;21.75;100.00;101353.03;4959917;28;20469;-67
2022/07/20 03:07:43;;;;;;;4.07;1.80;;;;;;;21.79;100.00;101346.00;4962872;28;20449;-67
2022/07/20 03:10:09;;;;;;;3.70;2.37;;;;;;;21.89;100.00;101348.78;4960293;28;20754;-66
2022/07/20 03:12:35;;;;;;;2.60;2.40;;;;;;;21.70;100.00;101336.66;4961451;28;20596;-67
2022/07/20 03:15:01;;;;;;;4.20;1.87;;;;;;;21.75;100.00;101346.78;4974872;28;20187;-66
2022/07/20 03:17:26;;;;;;;2.20;1.87;;;;;;;21.64;100.00;101335.78;4960042;28;20198;-66
2022/07/20 03:19:52;;;;;;;4.60;2.37;;;;;;;21.73;100.00;101347.03;4959786;28;21141;-66
2022/07/20 03:22:17;;;;;;;2.80;2.00;;;;;;;21.79;100.00;101347.91;4965448;28;20216;-67
2022/07/20 03:24:43;;;;;;;2.63;2.43;;;;;;;21.57;100.00;101307.88;4958950;28;20189;-66
2022/07/20 03:27:09;;;;;;;2.90;2.47;;;;;;;21.70;100.00;101333.91;4958805;28;20190;-66
2022/07/20 03:29:35;;;;;;;5.77;2.00;;;;;;;21.75;100.00;101352.22;4963237;28;20443;-66
2022/07/20 03:32:00;;;;;;;4.17;2.27;;;;;;;21.64;100.00;101329.50;4961629;28;20187;-67
2022/07/20 03:34:25;;;;;;;2.47;2.10;;;;;;;21.54;100.00;101323.94;4954846;28;20210;-67
2022/07/20 03:36:51;;;;;;;2.13;1.93;;;;;;;21.59;100.00;101324.00;4951212;28;20194;-67
2022/07/20 03:39:17;;;;;;;2.53;2.30;;;;;;;21.48;100.00;101316.81;4954579;28;20190;-67
2022/07/20 03:41:43;;;;;;;3.80;2.00;;;;;;;21.67;100.00;101353.56;4952463;28;20279;-66
2022/07/20 03:44:08;;;;;;;2.20;1.90;;;;;;;21.59;100.00;101354.03;4973273;28;21011;-67
2022/07/20 03:46:34;;;;;;;3.53;2.17;;;;;;;21.58;100.00;101349.63;4969751;28;20215;-66
2022/07/20 03:48:59;;;;;;;4.03;2.27;;;;;;;21.59;100.00;101349.38;4950132;28;20200;-67
2022/07/20 03:51:25;;;;;;;5.53;2.47;;;;;;;21.43;100.00;101340.22;4975317;28;20201;-67
2022/07/20 03:53:50;;;;;;;4.37;2.27;;;;;;;21.40;100.00;101334.47;4955256;28;20850;-67
2022/07/20 03:56:16;;;;;;;2.47;2.27;;;;;;;21.41;100.00;101344.31;4953785;28;20183;-67
2022/07/20 03:58:42;;;;;;;2.57;2.10;;;;;;;21.51;100.00;101346.31;4951663;28;20183;-67
2022/07/20 04:01:07;;;;;;;4.13;2.53;;;;;;;21.58;100.00;101342.28;4971906;28;20235;-67
2022/07/20 04:03:32;;;;;;;3.57;2.20;;;;;;;21.55;100.00;101344.69;4953668;28;20206;-67
2022/07/20 04:05:58;;;;;;;3.03;2.70;;;;;;;21.42;100.00;101349.50;4967454;28;20186;-66
2022/07/20 04:08:23;;;;;;;4.27;2.10;;;;;;;21.38;100.00;101323.00;4967161;28;20641;-67
2022/07/20 04:10:49;;;;;;;3.30;2.10;;;;;;;21.36;100.00;101325.13;4955202;28;20187;-67
2022/07/20 04:13:14;;;;;;;3.37;2.27;;;;;;;21.49;100.00;101343.00;4959199;28;20587;-67
2022/07/20 04:15:40;;;;;;;4.07;2.30;;;;;;;21.40;100.00;101343.47;4960443;28;20183;-67
2022/07/20 04:18:05;;;;;;;3.20;2.20;;;;;;;21.51;100.00;101336.22;4960158;28;20241;-67
2022/07/20 04:20:31;;;;;;;2.87;1.90;;;;;;;21.59;100.00;101343.09;4961527;28;20259;-67
2022/07/20 04:22:56;;;;;;;4.23;2.07;;;;;;;21.52;100.00;101342.47;4963077;28;20991;-67
2022/07/20 04:25:22;;;;;;;2.23;1.93;;;;;;;21.49;100.00;101351.19;4955863;28;20198;-67
2022/07/20 04:27:49;;;;;;;2.47;2.27;;;;;;;21.51;100.00;101343.56;4959372;28;20193;-67
2022/07/20 04:30:15;;;;;;;4.13;2.60;;;;;;;21.53;100.00;101352.34;4955295;28;20501;-66
2022/07/20 04:32:41;;;;;;;3.70;2.70;;;;;;;21.57;100.00;101354.28;4957406;28;20476;-67
2022/07/20 04:35:07;;;;;;;2.50;2.30;;;;;;;21.66;100.00;101349.97;4970475;28;20539;-67
2022/07/20 04:37:33;;;;;;;2.50;2.30;;;;;;;21.55;100.00;101325.59;4957740;28;20228;-67
2022/07/20 04:39:58;;;;;;;2.13;1.97;;;;;;;21.60;100.00;101348.28;4959112;28;20450;-67
2022/07/20 04:42:23;;;;;;;2.00;1.80;;;;;;;21.58;100.00;101342.28;4976904;28;20533;-67
2022/07/20 04:44:49;;;;;;;2.70;2.33;;;;;;;21.81;100.00;101357.50;4977394;28;20191;-67
2022/07/20 04:47:14;;;;;;;2.30;2.17;;;;;;;21.64;100.00;101357.63;4961683;28;20186;-67
2022/07/20 04:49:40;;;;;;;3.83;2.50;;;;;;;21.47;100.00;101296.88;4962355;28;20241;-67
2022/07/20 04:52:05;;;;;;;6.27;2.30;;;;;;;21.68;100.00;101333.34;4976263;28;20191;-67
2022/07/20 04:54:31;;;;;;;2.10;1.90;;;;;;;21.76;100.00;101357.44;4963415;28;20202;-67
2022/07/20 04:56:56;;;;;;;3.00;2.17;;;;;;;21.67;100.00;101343.44;4962844;28;20197;-67
2022/07/20 04:59:21;;;;;;;4.53;2.20;;;;;;;21.71;100.00;101330.09;4962386;28;20262;-67
2022/07/20 05:01:47;;;;;;;2.70;2.50;;;;;;;21.76;100.00;101326.59;4962625;28;20750;-67
2022/07/20 05:04:13;;;;;;;2.40;2.20;;;;;;;21.89;100.00;101361.63;4962633;28;20265;-67
2022/07/20 05:06:38;;;;;;;2.20;2.00;;;;;;;21.87;100.00;101345.53;4963030;28;20210;-67
2022/07/20 05:09:07;;;;;;;2.50;2.00;;;;;;;21.91;100.00;101362.19;4963097;28;20578;-67
2022/07/20 05:11:33;;;;;;;4.33;2.50;;;;;;;21.77;100.00;101325.50;4961388;28;20179;-67
2022/07/20 05:13:58;;;;;;;3.33;2.17;;;;;;;22.01;100.00;101358.69;4962589;28;20520;-67
2022/07/20 05:16:24;;;;;;;3.30;2.37;;;;;;;21.92;100.00;101338.44;4963155;28;20651;-67
2022/07/20 05:18:49;;;;;;;3.20;2.37;;;;;;;22.05;100.00;101336.06;4966153;28;20533;-67
2022/07/20 05:21:14;;;;;;;3.30;2.33;;;;;;;21.49;100.00;101233.84;4982523;28;20269;-67
2022/07/20 05:23:40;;;;;;;2.93;2.10;;;;;;;22.12;100.00;101324.91;4965000;28;20708;-67
2022/07/20 05:26:05;;;;;;;5.33;2.60;;;;;;;22.07;100.00;101313.94;4965949;28;20194;-67
2022/07/20 05:28:31;;;;;;;3.80;2.40;;;;;;;22.30;100.00;101353.72;4967453;28;20726;-67
2022/07/20 05:30:57;;;;;;;4.57;2.40;;;;;;;22.32;100.00;101341.44;4966433;28;20194;-67
2022/07/20 05:33:22;;;;;;;3.80;1.83;;;;;;;22.35;100.00;101342.81;4966547;28;20278;-67
2022/07/20 05:35:51;;;;;;;2.57;2.00;;;;;;;22.46;100.00;101369.13;4965318;28;20194;-67
2022/07/20 05:38:17;;;;;;;4.80;2.53;;;;;;;22.49;100.00;101352.19;4965126;28;20182;-67
2022/07/20 05:40:43;;;;;;;5.57;2.50;;;;;;;22.49;100.00;101329.50;4964821;28;20473;-67
2022/07/20 05:43:08;;;;;;;3.63;2.20;;;;;;;22.68;100.00;101365.38;4964762;28;20452;-67
2022/07/20 05:45:35;;;;;;;2.83;2.20;;;;;;;22.71;100.00;101364.84;4966197;28;20269;-67
2022/07/20 05:48:00;;;;;;;2.50;1.90;;;;;;;22.65;100.00;101349.53;4979942;28;20194;-67
2022/07/20 05:50:26;;;;;;;3.67;1.70;;;;;;;22.86;100.00;101367.66;4979644;28;20814;-67
2022/07/20 05:52:52;;;;;;;2.43;1.80;;;;;;;22.87;100.00;101368.47;4964264;28;20254;-67
2022/07/20 05:55:18;;;;;;;2.90;2.60;;;;;;;22.81;100.00;101370.38;4963017;28;20422;-67
2022/07/20 05:57:44;;;;;;;3.50;2.30;;;;;;;22.83;100.00;101359.19;4964570;28;20540;-67
2022/07/20 06:00:10;;;;;;;1.93;1.73;;;;;;;22.92;100.00;101365.78;4979438;28;20490;-67
2022/07/20 06:02:35;;;;;;;3.77;2.00;;;;;;;23.09;100.00;101349.97;4964939;28;20229;-67
2022/07/20 06:05:01;;;;;;;4.87;2.00;;;;;;;23.21;100.00;101353.28;4965958;28;20234;-67
2022/07/20 06:07:26;;;;;;;5.00;2.00;;;;;;;23.43;100.00;101364.00;4963527;28;20195;-67
2022/07/20 06:09:52;;;;;;;6.23;2.63;;;;;;;23.57;100.00;101345.09;4964988;28;20179;-67
2022/07/20 06:12:17;;;;;;;9.60;2.60;;;;;;;24.09;100.00;101387.81;4963337;28;20187;-67
2022/07/20 06:14:42;;;;;;;6.63;2.63;;;;;;;24.14;100.00;101387.00;4964423;28;20237;-66
2022/07/20 06:17:08;;;;;;;3.17;2.30;;;;;;;24.25;100.00;101390.56;4957015;28;20190;-67
2022/07/20 06:19:33;;;;;;;5.37;2.30;;;;;;;23.98;100.00;101374.41;4957821;28;20210;-69
2022/07/20 06:21:59;;;;;;;3.73;2.47;;;;;;;23.93;100.00;101367.03;4956527;28;20206;-67
2022/07/20 06:24:24;;;;;;;3.90;2.57;;;;;;;24.26;100.00;101387.53;4963892;28;20210;-67
2022/07/20 06:26:50;;;;;;;3.20;2.47;;;;;;;23.96;100.00;101368.41;4979564;28;20187;-67
2022/07/20 06:29:16;;;;;;;2.93;2.37;;;;;;;23.97;100.00;101381.81;4962390;28;20211;-67
2022/07/20 06:31:42;;;;;;;6.17;2.67;;;;;;;23.97;100.00;101364.56;4961825;28;20426;-67
2022/07/20 06:34:08;;;;;;;9.80;2.43;;;;;;;24.19;100.00;101370.56;4962413;28;20230;-67
2022/07/20 06:36:34;;;;;;;2.30;2.10;;;;;;;23.97;100.00;101346.19;4964340;28;20613;-67
2022/07/20 06:39:00;;;;;;;3.80;2.50;;;;;;;24.14;100.00;101368.63;4966267;28;20426;-68
2022/07/20 06:41:25;;;;;;;4.00;2.50;;;;;;;24.21;100.00;101390.28;4962853;28;20535;-67
2022/07/20 06:43:51;;;;;;;7.53;2.90;;;;;;;24.40;100.00;101390.50;4963498;28;20258;-67
2022/07/20 06:46:16;;;;;;;3.53;2.17;;;;;;;24.23;100.00;101379.84;4963730;28;20577;-67
2022/07/20 06:48:41;;;;;;;3.57;2.47;;;;;;;24.28;100.00;101374.38;4964875;28;20189;-67
2022/07/20 06:51:07;;;;;;;5.00;2.37;;;;;;;24.44;100.00;101375.16;4978784;28;20186;-67
2022/07/20 06:53:32;;;;;;;2.60;2.30;;;;;;;24.64;100.00;101398.16;4964893;28;20286;-67
2022/07/20 06:56:00;;;;;;;6.40;2.53;;;;;;;24.62;100.00;101367.44;4965397;28;20187;-67
2022/07/20 06:58:25;;;;;;;7.33;2.20;;;;;;;24.92;100.00;101391.19;4964751;28;20190;-67
2022/07/20 07:00:51;;;;;;;5.93;2.97;;;;;;;25.03;100.00;101390.84;4964217;28;20458;-67
2022/07/20 07:03:16;;;;;;;3.07;2.20;;;;;;;25.07;100.00;101404.00;4965509;28;20697;-66
2022/07/20 07:05:41;;;;;;;3.30;2.37;;;;;;;25.19;100.00;101399.00;4963012;28;20547;-66
2022/07/20 07:08:07;;;;;;;8.13;2.77;;;;;;;25.12;100.00;101371.03;4979107;28;20555;-66
2022/07/20 07:10:33;;;;;;;7.07;2.50;;;;;;;24.92;100.00;101386.50;4965242;28;20789;-66
2022/07/20 07:12:58;;;;;;;3.30;2.63;;;;;;;25.41;100.00;101399.44;4964107;28;20446;-66
2022/07/20 07:15:24;;;;;;;4.30;2.50;;;;;;;25.37;100.00;101392.03;4964066;28;20191;-66
2022/07/20 07:17:49;;;;;;;6.40;2.60;;;;;;;25.24;100.00;101358.63;4964140;28;20186;-66
2022/07/20 07:20:15;;;;;;;3.77;2.10;;;;;;;25.63;100.00;101387.19;4963366;28;20214;-67
2022/07/20 07:22:40;;;;;;;5.10;2.20;;;;;;;25.83;100.00;101387.03;4963842;28;20202;-67
2022/07/20 07:25:06;;;;;;;8.50;2.53;;;;;;;26.06;100.00;101385.47;4963828;28;20191;-67
2022/07/20 07:27:32;;;;;;;3.10;2.50;;;;;;;26.25;100.00;101379.25;4963802;28;20194;-66
2022/07/20 07:29:58;;;;;;;3.13;2.00;;;;;;;25.92;100.00;101373.50;4964287;28;20441;-67
2022/07/20 07:32:23;;;;;;;12.87;3.43;;;;;;;26.37;100.00;101352.97;4963552;28;20619;-66
2022/07/20 07:34:48;;;;;;;5.27;2.10;;;;;;;26.56;100.00;101346.75;4963328;28;20684;-66
2022/07/20 07:37:14;;;;;;;4.60;2.53;;;;;;;26.45;100.00;101373.50;4963121;28;20747;-66
2022/07/20 07:39:39;;;;;;;7.03;2.23;;;;;;;26.57;100.00;101367.63;4964206;28;20199;-67
2022/07/20 07:42:05;;;;;;;4.70;2.70;;;;;;;26.70;100.00;101364.16;4961697;28;20214;-66
2022/07/20 07:44:30;;;;;;;2.93;2.10;;;;;;;26.81;100.00;101382.16;4963238;28;20210;-67
2022/07/20 07:46:56;;;;;;;4.50;2.93;;;;;;;26.80;100.00;101374.22;4963927;28;20325;-66
2022/07/20 07:49:21;;;;;;;4.83;2.20;;;;;;;27.15;100.00;101377.59;4977442;28;20602;-67
2022/07/20 07:51:46;;;;;;;3.63;3.03;;;;;;;26.74;100.00;101365.19;4978594;28;20190;-67
2022/07/20 07:54:12;;;;;;;2.80;2.60;;;;;;;27.45;100.00;101374.41;4962843;28;20206;-67
2022/07/20 07:56:37;;;;;;;5.13;2.20;;;;;;;27.39;100.00;101378.34;4963651;28;20774;-67
2022/07/20 07:59:03;;;;;;;2.73;2.33;;;;;;;27.95;100.00;101382.16;4962701;28;20210;-67
2022/07/20 08:01:29;;;;;;;7.77;3.07;;;;;;;27.89;100.00;101369.59;4964367;28;20215;-67
2022/07/20 08:03:55;;;;;;;6.10;2.50;;;;;;;27.92;100.00;101361.53;4964097;28;20298;-66
2022/07/20 08:06:20;;;;;;;4.33;2.50;;;;;;;28.01;100.00;101355.31;4963588;28;20441;-66
2022/07/20 08:08:46;;;;;;;2.83;2.53;;;;;;;28.12;100.00;101365.00;4963325;28;20199;-66
2022/07/20 08:11:11;;;;;;;2.90;2.30;;;;;;;28.26;100.00;101362.28;4961949;28;20628;-66
2022/07/20 08:13:36;;;;;;;7.50;3.13;;;;;;;28.33;100.00;101366.28;4963592;28;20202;-67
2022/07/20 08:16:02;;;;;;;3.63;2.73;;;;;;;28.30;100.00;101366.06;4962706;28;20179;-66
2022/07/20 08:18:28;;;;;;;3.33;2.70;;;;;;;28.33;100.00;101365.44;4962811;28;20193;-66
2022/07/20 08:20:53;;;;;;;5.23;3.40;;;;;;;28.48;100.00;101367.13;4963063;28;20207;-66
2022/07/20 08:23:18;;;;;;;6.33;2.63;;;;;;;28.54;100.00;101360.38;4962195;28;20212;-67
2022/07/20 08:25:44;;;;;;;3.50;2.40;;;;;;;28.37;100.00;101374.75;4962525;28;20257;-66
2022/07/20 08:28:17;;;;;;;5.37;3.00;;;;;;;28.41;100.00;101386.81;4963520;28;20190;-66
2022/07/20 08:30:45;;;;;;;7.53;3.50;;;;;;;28.41;100.00;101381.31;4978760;28;20186;-66
2022/07/20 08:33:11;;;;;;;3.63;3.30;;;;;;;28.17;100.00;101381.47;4962647;28;20976;-67
2022/07/20 08:35:37;;;;;;;9.50;2.90;;;;;;;28.27;100.00;101384.03;4963385;28;20449;-67
2022/07/20 08:38:03;;;;;;;5.43;3.27;;;;;;;28.38;100.00;101360.66;4962610;28;20191;-66
2022/07/20 08:40:29;;;;;;;3.67;2.60;;;;;;;28.36;100.00;101384.97;4978903;28;20466;-67
2022/07/20 08:42:55;;;;;;;4.23;3.07;;;;;;;28.56;100.00;101405.03;4963185;28;20449;-67
2022/07/20 08:45:21;;;;;;;3.30;2.90;;;;;;;28.27;100.00;101378.53;4962237;28;20430;-67
2022/07/20 08:47:48;;;;;;;6.50;3.70;;;;;;;28.34;100.00;101397.44;4962354;28;20422;-67
2022/07/20 08:50:14;;;;;;;4.70;2.67;;;;;;;28.34;100.00;101403.75;4963803;28;20950;-67
2022/07/20 08:52:39;;;;;;;3.37;2.90;;;;;;;28.34;100.00;101416.72;4964669;28;20441;-67
2022/07/20 08:55:05;;;;;;;4.60;3.03;;;;;;;28.93;100.00;101417.78;4983826;28;20680;-67
2022/07/20 08:57:32;;;;;;;3.40;3.07;;;;;;;28.58;100.00;101427.59;4966463;28;20682;-67
2022/07/20 08:59:58;;;;;;;6.93;3.10;;;;;;;28.26;100.00;101409.16;4983114;28;21008;-67
2022/07/20 09:02:23;;;;;;;7.40;2.77;;;;;;;28.28;100.00;101440.03;4964906;28;20431;-67
2022/07/20 09:04:52;;;;;;;6.30;3.47;;;;;;;28.31;100.00;101440.22;4966977;28;20182;-67
2022/07/20 09:07:17;;;;;;;7.00;3.77;;;;;;;28.38;100.00;101429.63;4967375;28;20194;-66
2022/07/20 09:09:43;;;;;;;11.77;3.23;;;;;;;28.38;100.00;101440.66;4967050;28;20429;-67
2022/07/20 09:12:08;;;;;;;5.40;3.13;;;;;;;28.53;100.00;101458.09;4966150;28;20190;-67
2022/07/20 09:14:47;;;;;;;4.77;3.83;;;;;;;28.42;100.00;101468.47;4966646;28;20199;-66
2022/07/20 09:17:18;;;;;;;6.13;3.50;;;;;;;28.26;100.00;101434.78;4966594;28;20196;-66
2022/07/20 09:20:07;;;;;;;5.07;3.43;;;;;;;28.61;100.00;101471.16;4965337;28;20421;-66
2022/07/20 09:22:37;;;;;;;6.33;3.13;;;;;;;28.49;100.00;101446.81;4965102;28;20482;-67
2022/07/20 09:25:15;;;;;;;4.10;3.20;;;;;;;28.76;100.00;101478.34;4966102;28;20421;-66
2022/07/20 09:27:41;;;;;;;6.83;3.83;;;;;;;28.84;100.00;101474.84;4965945;28;20496;-67
2022/07/20 09:30:18;;;;;;;6.37;4.13;;;;;;;28.76;100.00;101489.38;4965770;28;20437;-67
2022/07/20 09:32:55;;;;;;;7.53;4.80;;;;;;;28.54;100.00;101477.06;4968130;28;20496;-66
2022/07/20 09:35:23;;;;;;;6.43;4.63;;;;;;;28.40;100.00;101496.34;4966528;28;20437;-67
2022/07/20 09:37:49;;;;;;;5.80;4.43;;;;;;;28.34;100.00;101491.22;4963706;28;20513;-67
2022/07/20 09:40:15;;;;;;;5.60;4.03;;;;;;;28.59;100.00;101512.88;4965185;28;20568;-66
2022/07/20 09:42:43;;;;;;;4.93;4.40;;;;;;;28.51;100.00;101510.81;4964334;28;20265;-67
2022/07/20 09:45:37;;;;;;;6.33;4.33;;;;;;;28.33;100.00;101515.22;4965458;28;20465;-67
2022/07/20 09:48:04;;;;;;;5.53;4.37;;;;;;;28.08;100.00;101432.94;4963530;28;20473;-67
2022/07/20 09:50:32;;;;;;;8.47;5.03;;;;;;;28.43;100.00;101505.97;4964632;28;20461;-67
2022/07/20 09:52:58;;;;;;;7.00;5.30;;;;;;;28.59;100.00;101489.97;4964129;28;20541;-67
2022/07/20 09:55:25;;;;;;;6.33;5.63;;;;;;;28.35;100.00;101515.75;4964959;28;20435;-66
2022/07/20 09:57:51;;;;;;;6.63;5.57;;;;;;;28.29;100.00;101527.16;4963904;28;20508;-67
2022/07/20 10:00:18;;;;;;;6.77;5.37;;;;;;;28.25;100.00;101528.91;4966232;28;20469;-66
2022/07/20 10:02:48;;;;;;;7.63;6.27;;;;;;;28.51;100.00;101535.63;4964452;28;21013;-67
2022/07/20 10:05:18;;;;;;;7.07;5.90;;;;;;;28.27;100.00;101515.63;4965567;28;21026;-67
2022/07/20 10:07:44;;;;;;;9.47;5.73;;;;;;;28.46;100.00;101532.97;4962722;28;20876;-67
2022/07/20 10:10:10;;;;;;;7.60;5.70;;;;;;;28.70;100.00;101548.53;4963603;28;20429;-66
2022/07/20 10:12:36;;;;;;;13.20;7.03;;;;;;;28.61;100.00;101538.22;4979166;28;20461;-67
2022/07/20 10:15:07;;;;;;;15.70;6.83;;;;;;;28.42;100.00;101542.16;4963337;28;20190;-67
2022/07/20 10:17:33;;;;;;;10.40;7.10;;;;;;;28.35;100.00;101542.50;4965982;28;20435;-67
2022/07/20 10:19:59;;;;;;;9.83;7.10;;;;;;;28.75;100.00;101538.22;4964330;28;20465;-67
2022/07/20 10:22:25;;;;;;;10.13;7.30;;;;;;;28.67;100.00;101550.00;4963759;28;20928;-67
2022/07/20 10:25:14;;;;;;;14.23;8.30;;;;;;;28.75;100.00;101559.50;4981017;28;20569;-67
2022/07/20 10:27:40;;;;;;;16.17;10.37;;;;;;;28.67;100.00;101550.00;4964243;28;20270;-67
2022/07/20 10:30:19;;;;;;;14.23;10.37;;;;;;;28.42;100.00;101525.59;4963388;28;20426;-67
2022/07/20 10:32:56;;;;;;;19.00;12.70;;;;;;;28.82;100.00;101560.75;4962943;28;20202;-66
2022/07/20 10:35:30;;;;;;;16.33;12.80;;;;;;;28.53;100.00;101536.16;4926846;28;1160044;-67
2022/07/20 10:37:57;;;;;;;14.70;12.47;;;;;;;28.64;100.00;101566.31;4980125;28;20205;-67
2022/07/20 10:40:25;;;;;;;19.70;14.00;;;;;;;28.47;100.00;101547.59;4964099;28;20474;-66
2022/07/20 10:43:14;;;;;;;16.90;12.93;;;;;;;28.80;100.00;101582.31;4965401;28;20520;-67
2022/07/20 10:45:40;;;;;;;17.87;12.90;;;;;;;28.69;100.00;101574.50;4962609;28;20474;-67
2022/07/20 10:48:11;;;;;;;17.10;13.93;;;;;;;28.72;100.00;101585.75;4964580;28;20908;-67
2022/07/20 10:50:37;;;;;;;16.33;13.37;;;;;;;28.86;100.00;101576.69;4964768;28;20437;-67
2022/07/20 10:53:08;;;;;;;18.63;13.83;;;;;;;28.80;100.00;101570.44;4965107;28;20449;-67
2022/07/20 10:55:33;;;;;;;17.73;13.57;;;;;;;28.66;100.00;101578.69;4964937;28;20206;-67
2022/07/20 10:58:11;;;;;;;14.70;13.03;;;;;;;28.51;100.00;101559.66;4963273;28;20458;-67
2022/07/20 11:00:38;;;;;;;14.67;13.17;;;;;;;28.51;100.00;101546.69;4964538;28;20222;-67
2022/07/20 11:03:12;;;;;;;17.83;12.40;;;;;;;28.84;100.00;101575.06;4964570;28;20446;-67
2022/07/20 11:05:38;;;;;;;19.50;14.07;;;;;;;28.96;100.00;101584.78;4963994;28;20911;-67
2022/07/20 11:08:13;;;;;;;17.13;14.07;;;;;;;28.83;100.00;101586.41;4963534;28;20426;-66
2022/07/20 11:10:40;;;;;;;17.77;13.20;;;;;;;28.91;100.00;101588.47;4963719;28;20703;-66
2022/07/20 11:13:11;;;;;;;15.97;12.87;;;;;;;28.97;100.00;101581.72;4962814;28;20447;-67
2022/07/20 11:15:48;;;;;;;14.97;12.53;;;;;;;28.81;100.00;101592.25;4965847;28;20430;-67
2022/07/20 11:18:17;;;;;;;17.13;13.80;;;;;;;28.76;100.00;101577.72;4963417;28;20449;-67